This is the latest recevied weather packets stored in our database for station/object EFTU. If no packets are shown the sender has not sent any weather packets the latest 10 day(s).
| Time | Temp. | Humidity | Pressure | Rain* | Wind** | Luminosity | Snow |
|---|---|---|---|---|---|---|---|
| 1777592820 | 4.44° C | 90% | 1022.9 hPa | - | - | - | - |
| 1777591620 | 3.89° C | 88% | 1022.9 hPa | - | - | - | - |
| 1777590419 | 5° C | 86% | 1023 hPa | - | - | - | - |
| 1777589220 | 5° C | 85% | 1022.9 hPa | - | - | - | - |
| 1777588020 | 5° C | 85% | 1022.8 hPa | - | - | - | - |
| 1777586819 | 6.11° C | 82% | 1022.9 hPa | - | - | - | - |
| 1777585620 | 6.67° C | 80% | 1022.8 hPa | - | - | - | - |
| 1777584420 | 6.67° C | 79% | 1022.9 hPa | - | - | - | - |
| 1777583219 | 7.22° C | 77% | 1022.8 hPa | - | - | - | - |
| 1777582020 | 7.78° C | 76% | 1022.8 hPa | - | - | - | - |
| 1777580819 | 7.78° C | 75% | 1022.7 hPa | - | - | - | - |
| 1777579619 | 8.89° C | 71% | 1022.6 hPa | - | - | - | - |
| 1777578419 | 9.44° C | 68% | 1022.5 hPa | - | - | - | - |
| 1777577219 | 9.44° C | 68% | 1022.5 hPa | - | - | - | - |
| 1777576019 | 9.44° C | 67% | 1022.4 hPa | - | - | - | - |
| 1777574819 | 10° C | 66% | 1022.4 hPa | - | - | - | - |
| 1777573619 | 10.56° C | 64% | 1022.3 hPa | - | - | - | - |
| 1777572418 | 11.11° C | 62% | 1022.3 hPa | - | - | - | - |
| 1777571219 | 11.67° C | 59% | 1022.1 hPa | - | - | - | - |
| 1777570019 | 12.22° C | 58% | 1022 hPa | - | - | - | - |
| 1777568819 | 12.78° C | 56% | 1021.9 hPa | - | - | - | - |
| 1777567618 | 13.33° C | 55% | 1021.8 hPa | - | - | - | - |
| 1777566419 | 13.33° C | 54% | 1021.8 hPa | - | - | - | - |
| 1777565219 | 12.78° C | 56% | 1021.8 hPa | - | - | - | - |
| 1777564018 | 12.78° C | 55% | 1021.7 hPa | - | - | - | - |
* Rain since midnight (hover to see other rain measurements)
** Current wind speed in m/s (hover to see current wind gust speed)